Aérodrome :
LOGIN :

S'inscrire | Disclaimer

   EN    FR    IT 

 










Légende :    VFR   VFR Marginal   IFR   IFR Intensif   IFR Très Intensif
Visi : 
Plafond : 
>= 8 km
>= 3000ft
5 à 8 km
1000 à 3000 ft
1500m à 5 km
500 à 1000 ft
800 à 1500m
200 à 500 ft
< 800m
< 200 ft
Symboles :   Orages  Brouillard  Fortes neiges  Fortes précipitations  Vent > 20 kt
SIGMETs :   Divers  Orages  Givrage  Turbulence  Onde Orograph.  Cendres Volcan.






- Altitude de l'aérodrome : 989 ft
- Code IATA : TRN


LIMF - Torino Caselle

DERNIER METAR :
  • 051750Z VRB02KT 7000 NSC 03/01 Q1026

METARs EXPIRÉS :
  • 051720Z VRB01KT 8000 NSC 04/02 Q1026
  • 051650Z 15003KT 7000 NSC 04/02 Q1026
  • 051620Z 13003KT 7000 NSC 04/02 Q1025
  • 051550Z 11003KT 8000 NSC 05/02 Q1025
  • 051520Z 05003KT CAVOK 06/02 Q1025
  • 051450Z 07003KT CAVOK 07/02 Q1025

TAF TAF LIMF
Valide du 05 à 18h jusqu'au 06 à 18h UTC


051700Z 0518/0618 VRB05KT 7000 NSC
TEMPO 0602/0608 0900 BCFG



MET'MAP, la Météo Aéronautique d'un coup d'oeil ! - Copyright ORBIFLY Décembre 2007 - Disclaimer

ORBIFLY MET'MAP TEAM :

Programmation & Développement : Alexandra Zaïnal
Sur une idée originale de : Baudouin d'Aumeries
Assistance à la programmation : Marc-Olivier Méhu
Soutien technique & logistique : Manuel Goepfert

Contact : metmap@orbifly.com




SOURCES & CREDITS :

   NOAA